sensor_id;sensor_type;location;lat;lon;timestamp;temperature;humidity
15288;DHT22;7745;48.708;9.026;2023-11-19T00:00:07;8.10;99.90
15288;DHT22;7745;48.708;9.026;2023-11-19T00:02:38;7.80;99.90
15288;DHT22;7745;48.708;9.026;2023-11-19T00:05:05;8.10;99.90
15288;DHT22;7745;48.708;9.026;2023-11-19T00:07:34;7.80;99.90
15288;DHT22;7745;48.708;9.026;2023-11-19T00:10:01;7.90;99.90
15288;DHT22;7745;48.708;9.026;2023-11-19T00:12:36;7.90;99.90
15288;DHT22;7745;48.708;9.026;2023-11-19T00:15:04;7.80;99.90
15288;DHT22;7745;48.708;9.026;2023-11-19T00:17:31;7.90;99.90
15288;DHT22;7745;48.708;9.026;2023-11-19T00:19:59;8.10;99.90
15288;DHT22;7745;48.708;9.026;2023-11-19T00:22:26;7.90;99.90
15288;DHT22;7745;48.708;9.026;2023-11-19T00:24:52;7.90;99.90
15288;DHT22;7745;48.708;9.026;2023-11-19T00:27:19;7.90;99.90
15288;DHT22;7745;48.708;9.026;2023-11-19T00:29:46;8.00;99.90
15288;DHT22;7745;48.708;9.026;2023-11-19T00:32:13;7.90;99.90
15288;DHT22;7745;48.708;9.026;2023-11-19T00:34:43;8.00;99.90
15288;DHT22;7745;48.708;9.026;2023-11-19T00:37:11;8.00;99.90
15288;DHT22;7745;48.708;9.026;2023-11-19T00:39:38;8.00;99.90
15288;DHT22;7745;48.708;9.026;2023-11-19T00:42:05;8.10;99.90
15288;DHT22;7745;48.708;9.026;2023-11-19T00:44:32;8.10;99.90
15288;DHT22;7745;48.708;9.026;2023-11-19T00:46:59;8.10;99.90
15288;DHT22;7745;48.708;9.026;2023-11-19T00:49:26;8.10;99.90
15288;DHT22;7745;48.708;9.026;2023-11-19T00:51:53;8.10;99.90
15288;DHT22;7745;48.708;9.026;2023-11-19T00:54:21;8.20;99.90
15288;DHT22;7745;48.708;9.026;2023-11-19T00:56:51;8.20;99.90
15288;DHT22;7745;48.708;9.026;2023-11-19T00:59:17;8.50;99.90
15288;DHT22;7745;48.708;9.026;2023-11-19T01:01:44;8.30;99.90
15288;DHT22;7745;48.708;9.026;2023-11-19T01:04:11;8.40;99.90
15288;DHT22;7745;48.708;9.026;2023-11-19T01:06:38;8.40;99.90
15288;DHT22;7745;48.708;9.026;2023-11-19T01:09:05;8.50;99.90
15288;DHT22;7745;48.708;9.026;2023-11-19T01:11:34;8.50;99.90
15288;DHT22;7745;48.708;9.026;2023-11-19T01:13:59;8.90;99.90
15288;DHT22;7745;48.708;9.026;2023-11-19T01:16:26;9.00;99.90
15288;DHT22;7745;48.708;9.026;2023-11-19T01:18:53;8.70;99.90
15288;DHT22;7745;48.708;9.026;2023-11-19T01:21:21;8.70;99.90
15288;DHT22;7745;48.708;9.026;2023-11-19T01:23:48;8.70;99.90
15288;DHT22;7745;48.708;9.026;2023-11-19T01:26:15;8.80;99.90
15288;DHT22;7745;48.708;9.026;2023-11-19T01:28:42;9.00;99.90
15288;DHT22;7745;48.708;9.026;2023-11-19T01:31:10;8.90;99.90
15288;DHT22;7745;48.708;9.026;2023-11-19T01:33:38;8.80;99.90
15288;DHT22;7745;48.708;9.026;2023-11-19T01:36:06;8.80;99.90
15288;DHT22;7745;48.708;9.026;2023-11-19T01:38:33;8.90;99.90
15288;DHT22;7745;48.708;9.026;2023-11-19T01:41:00;8.90;99.90
15288;DHT22;7745;48.708;9.026;2023-11-19T01:43:33;8.90;99.90
15288;DHT22;7745;48.708;9.026;2023-11-19T01:46:02;8.90;99.90
15288;DHT22;7745;48.708;9.026;2023-11-19T01:48:29;8.90;99.90
15288;DHT22;7745;48.708;9.026;2023-11-19T01:50:57;9.20;99.90
15288;DHT22;7745;48.708;9.026;2023-11-19T01:53:24;9.10;99.90
15288;DHT22;7745;48.708;9.026;2023-11-19T01:55:51;9.00;99.90
15288;DHT22;7745;48.708;9.026;2023-11-19T01:58:20;9.00;99.90
15288;DHT22;7745;48.708;9.026;2023-11-19T02:00:47;9.00;99.90
15288;DHT22;7745;48.708;9.026;2023-11-19T02:03:15;9.20;99.90
15288;DHT22;7745;48.708;9.026;2023-11-19T02:05:42;9.00;99.90
15288;DHT22;7745;48.708;9.026;2023-11-19T02:08:09;9.40;99.90
15288;DHT22;7745;48.708;9.026;2023-11-19T02:10:39;9.00;99.90
15288;DHT22;7745;48.708;9.026;2023-11-19T02:13:06;9.00;99.90
15288;DHT22;7745;48.708;9.026;2023-11-19T02:15:33;9.00;99.90
15288;DHT22;7745;48.708;9.026;2023-11-19T02:18:19;9.00;99.90
15288;DHT22;7745;48.708;9.026;2023-11-19T02:20:47;9.00;99.90
15288;DHT22;7745;48.708;9.026;2023-11-19T02:23:15;9.20;99.90
15288;DHT22;7745;48.708;9.026;2023-11-19T02:25:43;9.20;99.90
15288;DHT22;7745;48.708;9.026;2023-11-19T02:28:14;9.20;99.90
15288;DHT22;7745;48.708;9.026;2023-11-19T02:30:42;9.10;99.90
15288;DHT22;7745;48.708;9.026;2023-11-19T02:33:08;9.20;99.90
15288;DHT22;7745;48.708;9.026;2023-11-19T02:35:35;9.30;99.90
15288;DHT22;7745;48.708;9.026;2023-11-19T02:38:02;9.20;99.90
15288;DHT22;7745;48.708;9.026;2023-11-19T02:40:30;9.30;99.90
15288;DHT22;7745;48.708;9.026;2023-11-19T02:42:56;9.10;99.90
15288;DHT22;7745;48.708;9.026;2023-11-19T02:45:25;9.20;99.90
15288;DHT22;7745;48.708;9.026;2023-11-19T02:47:53;9.20;99.90
15288;DHT22;7745;48.708;9.026;2023-11-19T02:50:20;9.20;99.90
15288;DHT22;7745;48.708;9.026;2023-11-19T02:52:51;9.20;99.90
15288;DHT22;7745;48.708;9.026;2023-11-19T02:55:18;9.20;99.90
15288;DHT22;7745;48.708;9.026;2023-11-19T02:57:45;9.30;99.90
15288;DHT22;7745;48.708;9.026;2023-11-19T03:00:14;9.30;99.90
15288;DHT22;7745;48.708;9.026;2023-11-19T03:02:43;9.30;99.90
15288;DHT22;7745;48.708;9.026;2023-11-19T03:05:12;9.50;99.90
15288;DHT22;7745;48.708;9.026;2023-11-19T03:07:40;9.30;99.90
15288;DHT22;7745;48.708;9.026;2023-11-19T03:10:09;9.30;99.90
15288;DHT22;7745;48.708;9.026;2023-11-19T03:12:39;9.60;99.90
15288;DHT22;7745;48.708;9.026;2023-11-19T03:15:06;9.30;99.90
15288;DHT22;7745;48.708;9.026;2023-11-19T03:17:35;9.30;99.90
15288;DHT22;7745;48.708;9.026;2023-11-19T03:20:05;9.30;99.90
15288;DHT22;7745;48.708;9.026;2023-11-19T03:22:36;9.30;99.90
15288;DHT22;7745;48.708;9.026;2023-11-19T03:25:03;9.80;99.90
15288;DHT22;7745;48.708;9.026;2023-11-19T03:27:34;9.40;99.90
15288;DHT22;7745;48.708;9.026;2023-11-19T03:30:01;9.30;99.90
15288;DHT22;7745;48.708;9.026;2023-11-19T03:32:28;9.30;99.90
15288;DHT22;7745;48.708;9.026;2023-11-19T03:34:54;9.30;99.90
15288;DHT22;7745;48.708;9.026;2023-11-19T03:37:23;9.30;99.90
15288;DHT22;7745;48.708;9.026;2023-11-19T03:39:50;9.50;99.90
15288;DHT22;7745;48.708;9.026;2023-11-19T03:42:19;9.30;99.90
15288;DHT22;7745;48.708;9.026;2023-11-19T03:44:46;9.30;99.90
15288;DHT22;7745;48.708;9.026;2023-11-19T03:47:12;9.30;99.90
15288;DHT22;7745;48.708;9.026;2023-11-19T03:49:39;9.50;99.90
15288;DHT22;7745;48.708;9.026;2023-11-19T03:52:06;9.30;99.90
15288;DHT22;7745;48.708;9.026;2023-11-19T03:54:36;9.40;99.90
15288;DHT22;7745;48.708;9.026;2023-11-19T03:57:03;9.40;99.90
15288;DHT22;7745;48.708;9.026;2023-11-19T03:59:30;9.40;99.90
15288;DHT22;7745;48.708;9.026;2023-11-19T04:01:58;9.40;99.90
15288;DHT22;7745;48.708;9.026;2023-11-19T04:04:26;9.30;99.90
15288;DHT22;7745;48.708;9.026;2023-11-19T04:06:53;9.40;99.90
15288;DHT22;7745;48.708;9.026;2023-11-19T04:09:20;9.40;99.90
15288;DHT22;7745;48.708;9.026;2023-11-19T04:11:48;9.30;99.90
15288;DHT22;7745;48.708;9.026;2023-11-19T04:14:15;9.60;99.90
15288;DHT22;7745;48.708;9.026;2023-11-19T04:16:43;9.60;99.90
15288;DHT22;7745;48.708;9.026;2023-11-19T04:19:10;9.60;99.90
15288;DHT22;7745;48.708;9.026;2023-11-19T04:21:39;9.40;99.90
15288;DHT22;7745;48.708;9.026;2023-11-19T04:24:07;9.60;99.90
15288;DHT22;7745;48.708;9.026;2023-11-19T04:26:34;9.50;99.90
15288;DHT22;7745;48.708;9.026;2023-11-19T04:29:03;9.60;99.90
15288;DHT22;7745;48.708;9.026;2023-11-19T04:31:30;9.50;99.90
15288;DHT22;7745;48.708;9.026;2023-11-19T04:33:58;9.80;99.90
15288;DHT22;7745;48.708;9.026;2023-11-19T04:36:25;9.60;99.90
15288;DHT22;7745;48.708;9.026;2023-11-19T04:38:52;9.90;99.90
15288;DHT22;7745;48.708;9.026;2023-11-19T04:41:19;9.60;99.90
15288;DHT22;7745;48.708;9.026;2023-11-19T04:43:46;9.70;99.90
15288;DHT22;7745;48.708;9.026;2023-11-19T04:46:14;9.70;99.90
15288;DHT22;7745;48.708;9.026;2023-11-19T04:48:41;9.70;99.90
15288;DHT22;7745;48.708;9.026;2023-11-19T04:51:08;9.80;99.90
15288;DHT22;7745;48.708;9.026;2023-11-19T04:53:35;9.80;99.90
15288;DHT22;7745;48.708;9.026;2023-11-19T04:56:07;10.00;99.90
15288;DHT22;7745;48.708;9.026;2023-11-19T04:58:34;9.90;99.90
15288;DHT22;7745;48.708;9.026;2023-11-19T05:01:03;9.90;99.90
15288;DHT22;7745;48.708;9.026;2023-11-19T05:03:31;9.90;99.90
15288;DHT22;7745;48.708;9.026;2023-11-19T05:05:58;9.90;99.90
15288;DHT22;7745;48.708;9.026;2023-11-19T05:08:25;10.20;99.90
15288;DHT22;7745;48.708;9.026;2023-11-19T05:10:52;10.10;99.90
15288;DHT22;7745;48.708;9.026;2023-11-19T05:13:19;10.00;99.90
15288;DHT22;7745;48.708;9.026;2023-11-19T05:15:46;10.10;99.90
15288;DHT22;7745;48.708;9.026;2023-11-19T05:18:12;10.00;99.90
15288;DHT22;7745;48.708;9.026;2023-11-19T05:20:40;10.00;99.90
15288;DHT22;7745;48.708;9.026;2023-11-19T05:23:07;10.20;99.90
15288;DHT22;7745;48.708;9.026;2023-11-19T05:25:34;9.90;99.90
15288;DHT22;7745;48.708;9.026;2023-11-19T05:28:03;10.00;99.90
15288;DHT22;7745;48.708;9.026;2023-11-19T05:30:29;10.20;99.90
15288;DHT22;7745;48.708;9.026;2023-11-19T05:32:56;10.00;99.90
15288;DHT22;7745;48.708;9.026;2023-11-19T05:35:23;10.10;99.90
15288;DHT22;7745;48.708;9.026;2023-11-19T05:37:51;10.10;99.90
15288;DHT22;7745;48.708;9.026;2023-11-19T05:40:18;10.10;99.90
15288;DHT22;7745;48.708;9.026;2023-11-19T05:42:46;10.10;99.90
15288;DHT22;7745;48.708;9.026;2023-11-19T05:45:13;10.20;99.90
15288;DHT22;7745;48.708;9.026;2023-11-19T05:47:40;10.20;99.90
15288;DHT22;7745;48.708;9.026;2023-11-19T05:50:08;10.30;99.90
15288;DHT22;7745;48.708;9.026;2023-11-19T05:52:35;10.20;99.90
15288;DHT22;7745;48.708;9.026;2023-11-19T05:55:03;10.20;99.90
15288;DHT22;7745;48.708;9.026;2023-11-19T05:57:34;10.20;99.90
15288;DHT22;7745;48.708;9.026;2023-11-19T06:00:01;10.40;99.90
15288;DHT22;7745;48.708;9.026;2023-11-19T06:02:29;10.20;99.90
15288;DHT22;7745;48.708;9.026;2023-11-19T06:04:55;10.20;99.90
15288;DHT22;7745;48.708;9.026;2023-11-19T06:07:22;10.20;99.90
15288;DHT22;7745;48.708;9.026;2023-11-19T06:09:50;10.10;99.90
15288;DHT22;7745;48.708;9.026;2023-11-19T06:12:18;10.10;99.90
15288;DHT22;7745;48.708;9.026;2023-11-19T06:14:45;10.10;99.90
15288;DHT22;7745;48.708;9.026;2023-11-19T06:17:12;10.10;99.90
15288;DHT22;7745;48.708;9.026;2023-11-19T06:19:39;10.20;99.90
15288;DHT22;7745;48.708;9.026;2023-11-19T06:22:06;10.10;99.90
15288;DHT22;7745;48.708;9.026;2023-11-19T06:24:33;10.20;99.90
15288;DHT22;7745;48.708;9.026;2023-11-19T06:26:59;10.20;99.90
15288;DHT22;7745;48.708;9.026;2023-11-19T06:29:28;10.30;99.90
15288;DHT22;7745;48.708;9.026;2023-11-19T06:31:54;10.30;99.90
15288;DHT22;7745;48.708;9.026;2023-11-19T06:34:21;10.10;99.90
15288;DHT22;7745;48.708;9.026;2023-11-19T06:36:48;10.20;99.90
15288;DHT22;7745;48.708;9.026;2023-11-19T06:39:15;10.10;99.90
15288;DHT22;7745;48.708;9.026;2023-11-19T06:41:45;10.10;99.90
15288;DHT22;7745;48.708;9.026;2023-11-19T06:44:12;10.20;99.90
15288;DHT22;7745;48.708;9.026;2023-11-19T06:46:40;10.20;99.90
15288;DHT22;7745;48.708;9.026;2023-11-19T06:49:07;10.20;99.90
15288;DHT22;7745;48.708;9.026;2023-11-19T06:51:34;10.30;99.90
15288;DHT22;7745;48.708;9.026;2023-11-19T06:54:01;10.50;99.90
15288;DHT22;7745;48.708;9.026;2023-11-19T06:56:28;10.70;99.90
15288;DHT22;7745;48.708;9.026;2023-11-19T06:58:55;10.60;99.90
15288;DHT22;7745;48.708;9.026;2023-11-19T07:01:21;10.50;99.90
15288;DHT22;7745;48.708;9.026;2023-11-19T07:03:50;10.30;99.90
15288;DHT22;7745;48.708;9.026;2023-11-19T07:06:17;10.30;99.90
15288;DHT22;7745;48.708;9.026;2023-11-19T07:08:44;10.30;99.90
15288;DHT22;7745;48.708;9.026;2023-11-19T07:11:13;10.30;99.90
15288;DHT22;7745;48.708;9.026;2023-11-19T07:13:44;10.20;99.90
15288;DHT22;7745;48.708;9.026;2023-11-19T07:16:14;10.20;99.90
15288;DHT22;7745;48.708;9.026;2023-11-19T07:18:41;10.30;99.90
15288;DHT22;7745;48.708;9.026;2023-11-19T07:21:10;10.30;99.90
15288;DHT22;7745;48.708;9.026;2023-11-19T07:23:37;10.30;99.90
15288;DHT22;7745;48.708;9.026;2023-11-19T07:26:05;10.30;99.90
15288;DHT22;7745;48.708;9.026;2023-11-19T07:28:36;10.30;99.90
15288;DHT22;7745;48.708;9.026;2023-11-19T07:31:05;10.70;99.90
15288;DHT22;7745;48.708;9.026;2023-11-19T07:33:33;10.40;99.90
15288;DHT22;7745;48.708;9.026;2023-11-19T07:36:00;10.40;99.90
15288;DHT22;7745;48.708;9.026;2023-11-19T07:38:28;10.40;99.90
15288;DHT22;7745;48.708;9.026;2023-11-19T07:40:55;10.50;99.90
15288;DHT22;7745;48.708;9.026;2023-11-19T07:43:22;10.50;99.90
15288;DHT22;7745;48.708;9.026;2023-11-19T07:45:49;10.50;99.90
15288;DHT22;7745;48.708;9.026;2023-11-19T07:48:16;10.60;99.90
15288;DHT22;7745;48.708;9.026;2023-11-19T07:50:54;10.50;99.90
15288;DHT22;7745;48.708;9.026;2023-11-19T07:53:21;10.50;99.90
15288;DHT22;7745;48.708;9.026;2023-11-19T07:55:49;10.50;99.90
15288;DHT22;7745;48.708;9.026;2023-11-19T07:58:24;10.50;99.90
15288;DHT22;7745;48.708;9.026;2023-11-19T08:00:53;11.00;99.90
15288;DHT22;7745;48.708;9.026;2023-11-19T08:03:20;11.00;99.90
15288;DHT22;7745;48.708;9.026;2023-11-19T08:05:48;10.60;99.90
15288;DHT22;7745;48.708;9.026;2023-11-19T08:08:16;10.70;99.90
15288;DHT22;7745;48.708;9.026;2023-11-19T08:10:43;10.80;99.90
15288;DHT22;7745;48.708;9.026;2023-11-19T08:13:12;10.70;99.90
15288;DHT22;7745;48.708;9.026;2023-11-19T08:15:38;10.70;99.90
15288;DHT22;7745;48.708;9.026;2023-11-19T08:18:05;10.90;99.90
15288;DHT22;7745;48.708;9.026;2023-11-19T08:20:32;10.70;99.90
15288;DHT22;7745;48.708;9.026;2023-11-19T08:22:59;10.80;99.90
15288;DHT22;7745;48.708;9.026;2023-11-19T08:25:26;10.80;99.90
15288;DHT22;7745;48.708;9.026;2023-11-19T08:27:55;10.90;99.90
15288;DHT22;7745;48.708;9.026;2023-11-19T08:30:23;10.90;99.90
15288;DHT22;7745;48.708;9.026;2023-11-19T08:32:50;11.00;99.90
15288;DHT22;7745;48.708;9.026;2023-11-19T08:35:17;11.10;99.90
15288;DHT22;7745;48.708;9.026;2023-11-19T08:37:44;11.20;99.90
15288;DHT22;7745;48.708;9.026;2023-11-19T08:40:12;11.20;99.90
15288;DHT22;7745;48.708;9.026;2023-11-19T08:42:40;11.30;99.90
15288;DHT22;7745;48.708;9.026;2023-11-19T08:45:08;11.30;99.90
15288;DHT22;7745;48.708;9.026;2023-11-19T08:47:37;11.30;99.90
15288;DHT22;7745;48.708;9.026;2023-11-19T08:50:06;11.30;99.90
15288;DHT22;7745;48.708;9.026;2023-11-19T08:52:33;11.40;99.90
15288;DHT22;7745;48.708;9.026;2023-11-19T08:55:01;11.40;99.90
15288;DHT22;7745;48.708;9.026;2023-11-19T08:57:27;11.50;99.90
15288;DHT22;7745;48.708;9.026;2023-11-19T08:59:54;11.60;99.90
15288;DHT22;7745;48.708;9.026;2023-11-19T09:02:21;11.70;99.90
15288;DHT22;7745;48.708;9.026;2023-11-19T09:04:49;11.70;99.90
15288;DHT22;7745;48.708;9.026;2023-11-19T09:07:16;11.80;99.90
15288;DHT22;7745;48.708;9.026;2023-11-19T09:09:43;11.80;99.90
15288;DHT22;7745;48.708;9.026;2023-11-19T09:12:10;12.00;99.90
15288;DHT22;7745;48.708;9.026;2023-11-19T09:14:36;12.00;99.90
15288;DHT22;7745;48.708;9.026;2023-11-19T09:17:03;12.00;99.90
15288;DHT22;7745;48.708;9.026;2023-11-19T09:19:32;12.10;99.90
15288;DHT22;7745;48.708;9.026;2023-11-19T09:22:02;12.10;99.90
15288;DHT22;7745;48.708;9.026;2023-11-19T09:24:29;12.10;99.90
15288;DHT22;7745;48.708;9.026;2023-11-19T09:26:56;12.60;99.90
15288;DHT22;7745;48.708;9.026;2023-11-19T09:29:23;12.50;99.90
15288;DHT22;7745;48.708;9.026;2023-11-19T09:31:50;12.40;99.90
15288;DHT22;7745;48.708;9.026;2023-11-19T09:34:17;12.50;99.90
15288;DHT22;7745;48.708;9.026;2023-11-19T09:36:44;12.60;99.90
15288;DHT22;7745;48.708;9.026;2023-11-19T09:39:12;12.70;99.90
15288;DHT22;7745;48.708;9.026;2023-11-19T09:41:40;12.70;99.90
15288;DHT22;7745;48.708;9.026;2023-11-19T09:44:08;12.60;99.90
15288;DHT22;7745;48.708;9.026;2023-11-19T09:46:35;12.80;99.90
15288;DHT22;7745;48.708;9.026;2023-11-19T09:49:02;12.70;99.90
15288;DHT22;7745;48.708;9.026;2023-11-19T09:51:33;12.70;99.90
15288;DHT22;7745;48.708;9.026;2023-11-19T09:53:59;12.70;99.90
15288;DHT22;7745;48.708;9.026;2023-11-19T09:56:29;12.70;99.90
15288;DHT22;7745;48.708;9.026;2023-11-19T09:58:56;12.80;99.90
15288;DHT22;7745;48.708;9.026;2023-11-19T10:01:23;12.70;99.90
15288;DHT22;7745;48.708;9.026;2023-11-19T10:03:55;12.80;99.90
15288;DHT22;7745;48.708;9.026;2023-11-19T10:06:23;12.90;99.90
15288;DHT22;7745;48.708;9.026;2023-11-19T10:08:52;12.70;99.90
15288;DHT22;7745;48.708;9.026;2023-11-19T10:11:19;12.70;99.90
15288;DHT22;7745;48.708;9.026;2023-11-19T10:13:47;13.10;99.90
15288;DHT22;7745;48.708;9.026;2023-11-19T10:16:15;12.80;99.90
15288;DHT22;7745;48.708;9.026;2023-11-19T10:18:45;12.90;99.90
15288;DHT22;7745;48.708;9.026;2023-11-19T10:21:12;13.00;99.90
15288;DHT22;7745;48.708;9.026;2023-11-19T10:23:49;13.20;99.90
15288;DHT22;7745;48.708;9.026;2023-11-19T10:26:17;13.30;99.90
15288;DHT22;7745;48.708;9.026;2023-11-19T10:28:47;13.40;99.90
15288;DHT22;7745;48.708;9.026;2023-11-19T10:31:14;13.50;99.90
15288;DHT22;7745;48.708;9.026;2023-11-19T10:33:41;13.60;99.90
15288;DHT22;7745;48.708;9.026;2023-11-19T10:36:10;13.60;99.90
15288;DHT22;7745;48.708;9.026;2023-11-19T10:38:38;13.80;99.90
15288;DHT22;7745;48.708;9.026;2023-11-19T10:41:05;13.90;99.90
15288;DHT22;7745;48.708;9.026;2023-11-19T10:43:43;14.00;99.90
15288;DHT22;7745;48.708;9.026;2023-11-19T10:46:12;14.30;99.90
15288;DHT22;7745;48.708;9.026;2023-11-19T10:48:39;14.10;99.90
15288;DHT22;7745;48.708;9.026;2023-11-19T10:51:07;14.00;99.90
15288;DHT22;7745;48.708;9.026;2023-11-19T10:53:37;14.00;99.90
15288;DHT22;7745;48.708;9.026;2023-11-19T10:56:06;14.00;99.90
15288;DHT22;7745;48.708;9.026;2023-11-19T10:58:37;14.10;99.90
15288;DHT22;7745;48.708;9.026;2023-11-19T11:01:11;14.20;99.90
15288;DHT22;7745;48.708;9.026;2023-11-19T11:03:40;14.40;99.90
15288;DHT22;7745;48.708;9.026;2023-11-19T11:06:08;14.50;99.90
15288;DHT22;7745;48.708;9.026;2023-11-19T11:08:37;14.40;99.90
15288;DHT22;7745;48.708;9.026;2023-11-19T11:11:06;14.40;99.90
15288;DHT22;7745;48.708;9.026;2023-11-19T11:13:37;14.30;99.90
15288;DHT22;7745;48.708;9.026;2023-11-19T11:16:06;14.60;99.90
15288;DHT22;7745;48.708;9.026;2023-11-19T11:18:35;14.40;99.90
15288;DHT22;7745;48.708;9.026;2023-11-19T11:21:07;14.70;99.90
15288;DHT22;7745;48.708;9.026;2023-11-19T11:24:03;14.50;99.90
15288;DHT22;7745;48.708;9.026;2023-11-19T11:26:53;14.50;99.90
15288;DHT22;7745;48.708;9.026;2023-11-19T11:29:29;14.50;99.90
15288;DHT22;7745;48.708;9.026;2023-11-19T11:32:04;14.40;99.90
15288;DHT22;7745;48.708;9.026;2023-11-19T11:34:57;14.30;99.90
15288;DHT22;7745;48.708;9.026;2023-11-19T11:37:31;14.30;99.90
15288;DHT22;7745;48.708;9.026;2023-11-19T11:39:58;14.30;99.90
15288;DHT22;7745;48.708;9.026;2023-11-19T11:42:35;14.10;99.90
15288;DHT22;7745;48.708;9.026;2023-11-19T11:45:05;14.10;99.90
15288;DHT22;7745;48.708;9.026;2023-11-19T11:48:09;14.10;99.90
15288;DHT22;7745;48.708;9.026;2023-11-19T11:50:48;14.10;99.90
15288;DHT22;7745;48.708;9.026;2023-11-19T11:53:16;14.20;99.90
15288;DHT22;7745;48.708;9.026;2023-11-19T11:55:57;14.00;99.90
15288;DHT22;7745;48.708;9.026;2023-11-19T11:58:32;14.00;99.90
15288;DHT22;7745;48.708;9.026;2023-11-19T12:01:00;14.10;99.90
15288;DHT22;7745;48.708;9.026;2023-11-19T12:03:28;14.10;99.90
15288;DHT22;7745;48.708;9.026;2023-11-19T12:05:58;14.20;99.90
15288;DHT22;7745;48.708;9.026;2023-11-19T12:08:26;14.40;99.90
15288;DHT22;7745;48.708;9.026;2023-11-19T12:10:54;14.10;99.90
15288;DHT22;7745;48.708;9.026;2023-11-19T12:13:23;14.30;99.90
15288;DHT22;7745;48.708;9.026;2023-11-19T12:16:09;14.30;99.90
15288;DHT22;7745;48.708;9.026;2023-11-19T12:18:39;14.40;99.90
15288;DHT22;7745;48.708;9.026;2023-11-19T12:21:07;14.40;99.90
15288;DHT22;7745;48.708;9.026;2023-11-19T12:23:44;14.60;99.90
15288;DHT22;7745;48.708;9.026;2023-11-19T12:26:30;14.40;99.90
15288;DHT22;7745;48.708;9.026;2023-11-19T12:28:57;14.40;99.90
15288;DHT22;7745;48.708;9.026;2023-11-19T12:31:24;14.30;99.90
15288;DHT22;7745;48.708;9.026;2023-11-19T12:33:51;14.20;99.90
15288;DHT22;7745;48.708;9.026;2023-11-19T12:36:20;14.20;99.90
15288;DHT22;7745;48.708;9.026;2023-11-19T12:38:47;14.10;99.90
15288;DHT22;7745;48.708;9.026;2023-11-19T12:41:14;14.30;99.90
15288;DHT22;7745;48.708;9.026;2023-11-19T12:43:45;14.30;99.90
15288;DHT22;7745;48.708;9.026;2023-11-19T12:46:19;14.40;99.90
15288;DHT22;7745;48.708;9.026;2023-11-19T12:48:46;14.40;99.90
15288;DHT22;7745;48.708;9.026;2023-11-19T12:51:13;14.50;99.90
15288;DHT22;7745;48.708;9.026;2023-11-19T12:53:51;14.50;99.90
15288;DHT22;7745;48.708;9.026;2023-11-19T12:56:20;14.50;99.90
15288;DHT22;7745;48.708;9.026;2023-11-19T12:58:46;14.50;99.90
15288;DHT22;7745;48.708;9.026;2023-11-19T13:01:16;14.40;99.90
15288;DHT22;7745;48.708;9.026;2023-11-19T13:03:43;14.50;99.90
15288;DHT22;7745;48.708;9.026;2023-11-19T13:06:12;14.40;99.90
15288;DHT22;7745;48.708;9.026;2023-11-19T13:08:40;14.30;99.90
15288;DHT22;7745;48.708;9.026;2023-11-19T13:11:09;14.20;99.90
15288;DHT22;7745;48.708;9.026;2023-11-19T13:13:55;14.10;99.90
15288;DHT22;7745;48.708;9.026;2023-11-19T13:16:22;14.10;99.90
15288;DHT22;7745;48.708;9.026;2023-11-19T13:18:49;14.20;99.90
15288;DHT22;7745;48.708;9.026;2023-11-19T13:21:17;14.40;99.90
15288;DHT22;7745;48.708;9.026;2023-11-19T13:23:44;14.40;99.90
15288;DHT22;7745;48.708;9.026;2023-11-19T13:26:12;14.30;99.90
15288;DHT22;7745;48.708;9.026;2023-11-19T13:28:39;14.30;99.90
15288;DHT22;7745;48.708;9.026;2023-11-19T13:31:06;14.30;99.90
15288;DHT22;7745;48.708;9.026;2023-11-19T13:33:33;14.50;99.90
15288;DHT22;7745;48.708;9.026;2023-11-19T13:36:00;14.20;99.90
15288;DHT22;7745;48.708;9.026;2023-11-19T13:38:31;14.30;99.90
15288;DHT22;7745;48.708;9.026;2023-11-19T13:40:58;14.20;99.90
15288;DHT22;7745;48.708;9.026;2023-11-19T13:43:26;14.20;99.90
15288;DHT22;7745;48.708;9.026;2023-11-19T13:45:54;14.10;99.90
15288;DHT22;7745;48.708;9.026;2023-11-19T13:48:21;14.10;99.90
15288;DHT22;7745;48.708;9.026;2023-11-19T13:50:48;14.10;99.90
15288;DHT22;7745;48.708;9.026;2023-11-19T13:53:14;14.10;99.90
15288;DHT22;7745;48.708;9.026;2023-11-19T13:55:41;14.10;99.90
15288;DHT22;7745;48.708;9.026;2023-11-19T13:58:08;14.10;99.90
15288;DHT22;7745;48.708;9.026;2023-11-19T14:00:36;14.00;99.90
15288;DHT22;7745;48.708;9.026;2023-11-19T14:03:03;14.00;99.90
15288;DHT22;7745;48.708;9.026;2023-11-19T14:05:30;13.90;99.90
15288;DHT22;7745;48.708;9.026;2023-11-19T14:07:57;13.90;99.90
15288;DHT22;7745;48.708;9.026;2023-11-19T14:10:24;13.90;99.90
15288;DHT22;7745;48.708;9.026;2023-11-19T14:12:51;13.90;99.90
15288;DHT22;7745;48.708;9.026;2023-11-19T14:15:18;13.90;99.90
15288;DHT22;7745;48.708;9.026;2023-11-19T14:17:46;13.90;99.90
15288;DHT22;7745;48.708;9.026;2023-11-19T14:20:13;13.90;99.90
15288;DHT22;7745;48.708;9.026;2023-11-19T14:22:44;13.90;99.90
15288;DHT22;7745;48.708;9.026;2023-11-19T14:25:15;13.90;99.90
15288;DHT22;7745;48.708;9.026;2023-11-19T14:27:45;13.80;99.90
15288;DHT22;7745;48.708;9.026;2023-11-19T14:30:26;13.80;99.90
15288;DHT22;7745;48.708;9.026;2023-11-19T14:33:09;13.80;99.90
15288;DHT22;7745;48.708;9.026;2023-11-19T14:35:39;13.90;99.90
15288;DHT22;7745;48.708;9.026;2023-11-19T14:38:06;13.70;99.90
15288;DHT22;7745;48.708;9.026;2023-11-19T14:40:35;13.70;99.90
15288;DHT22;7745;48.708;9.026;2023-11-19T14:43:05;13.60;99.90
15288;DHT22;7745;48.708;9.026;2023-11-19T14:45:39;13.60;99.90
15288;DHT22;7745;48.708;9.026;2023-11-19T14:48:30;13.90;99.90
15288;DHT22;7745;48.708;9.026;2023-11-19T14:50:59;13.90;99.90
15288;DHT22;7745;48.708;9.026;2023-11-19T14:53:30;13.70;99.90
15288;DHT22;7745;48.708;9.026;2023-11-19T14:56:10;13.50;99.90
15288;DHT22;7745;48.708;9.026;2023-11-19T14:58:38;13.90;99.90
15288;DHT22;7745;48.708;9.026;2023-11-19T15:01:23;13.40;99.90
15288;DHT22;7745;48.708;9.026;2023-11-19T15:03:51;13.40;99.90
15288;DHT22;7745;48.708;9.026;2023-11-19T15:06:23;13.70;99.90
15288;DHT22;7745;48.708;9.026;2023-11-19T15:08:53;13.50;99.90
15288;DHT22;7745;48.708;9.026;2023-11-19T15:11:22;13.20;99.90
15288;DHT22;7745;48.708;9.026;2023-11-19T15:13:49;13.30;99.90
15288;DHT22;7745;48.708;9.026;2023-11-19T15:16:20;13.20;99.90
15288;DHT22;7745;48.708;9.026;2023-11-19T15:19:04;13.20;99.90
15288;DHT22;7745;48.708;9.026;2023-11-19T15:21:34;12.90;99.90
15288;DHT22;7745;48.708;9.026;2023-11-19T15:24:01;12.80;99.90
15288;DHT22;7745;48.708;9.026;2023-11-19T15:26:33;12.80;99.90
15288;DHT22;7745;48.708;9.026;2023-11-19T15:29:03;12.90;99.90
15288;DHT22;7745;48.708;9.026;2023-11-19T15:31:33;12.80;99.90
15288;DHT22;7745;48.708;9.026;2023-11-19T15:34:02;12.60;99.90
15288;DHT22;7745;48.708;9.026;2023-11-19T15:36:38;12.50;99.90
15288;DHT22;7745;48.708;9.026;2023-11-19T15:39:17;12.80;99.90
15288;DHT22;7745;48.708;9.026;2023-11-19T15:41:51;12.70;99.90
15288;DHT22;7745;48.708;9.026;2023-11-19T15:44:19;12.50;99.90
15288;DHT22;7745;48.708;9.026;2023-11-19T15:46:56;12.40;99.90
15288;DHT22;7745;48.708;9.026;2023-11-19T15:49:26;12.50;99.90
15288;DHT22;7745;48.708;9.026;2023-11-19T15:51:53;12.40;99.90
15288;DHT22;7745;48.708;9.026;2023-11-19T15:54:24;12.00;99.90
15288;DHT22;7745;48.708;9.026;2023-11-19T15:57:09;12.00;99.90
15288;DHT22;7745;48.708;9.026;2023-11-19T15:59:42;12.00;99.90